sensor_id;sensor_type;location;lat;lon;timestamp;temperature;humidity
67557;DHT22;54387;53.526;49.300;2022-07-29T00:00:29;19.10;64.40
67557;DHT22;54387;53.526;49.300;2022-07-29T00:02:56;19.10;64.60
67557;DHT22;54387;53.526;49.300;2022-07-29T00:05:22;19.10;64.70
67557;DHT22;54387;53.526;49.300;2022-07-29T00:07:48;19.00;64.90
67557;DHT22;54387;53.526;49.300;2022-07-29T00:10:15;19.00;65.00
67557;DHT22;54387;53.526;49.300;2022-07-29T00:12:41;19.00;65.10
67557;DHT22;54387;53.526;49.300;2022-07-29T00:15:08;19.00;65.20
67557;DHT22;54387;53.526;49.300;2022-07-29T00:17:34;19.00;65.20
67557;DHT22;54387;53.526;49.300;2022-07-29T00:20:01;19.00;65.20
67557;DHT22;54387;53.526;49.300;2022-07-29T00:22:27;19.10;65.40
67557;DHT22;54387;53.526;49.300;2022-07-29T00:24:54;19.10;65.90
67557;DHT22;54387;53.526;49.300;2022-07-29T00:27:20;19.10;65.30
67557;DHT22;54387;53.526;49.300;2022-07-29T00:29:48;19.00;65.30
67557;DHT22;54387;53.526;49.300;2022-07-29T00:32:14;19.00;65.30
67557;DHT22;54387;53.526;49.300;2022-07-29T00:34:40;19.00;65.40
67557;DHT22;54387;53.526;49.300;2022-07-29T00:37:25;19.00;65.60
67557;DHT22;54387;53.526;49.300;2022-07-29T00:39:52;18.90;65.60
67557;DHT22;54387;53.526;49.300;2022-07-29T00:42:18;18.90;65.70
67557;DHT22;54387;53.526;49.300;2022-07-29T00:44:45;18.90;65.70
67557;DHT22;54387;53.526;49.300;2022-07-29T00:47:12;18.80;65.90
67557;DHT22;54387;53.526;49.300;2022-07-29T00:49:39;18.80;66.00
67557;DHT22;54387;53.526;49.300;2022-07-29T00:52:08;18.70;66.10
67557;DHT22;54387;53.526;49.300;2022-07-29T00:54:36;18.70;66.00
67557;DHT22;54387;53.526;49.300;2022-07-29T00:57:04;18.60;65.90
67557;DHT22;54387;53.526;49.300;2022-07-29T00:59:32;18.60;66.00
67557;DHT22;54387;53.526;49.300;2022-07-29T01:01:58;18.60;66.30
67557;DHT22;54387;53.526;49.300;2022-07-29T01:04:25;18.50;66.30
67557;DHT22;54387;53.526;49.300;2022-07-29T01:06:51;18.50;66.40
67557;DHT22;54387;53.526;49.300;2022-07-29T01:09:19;18.50;66.50
67557;DHT22;54387;53.526;49.300;2022-07-29T01:11:46;18.50;66.50
67557;DHT22;54387;53.526;49.300;2022-07-29T01:14:15;18.50;66.50
67557;DHT22;54387;53.526;49.300;2022-07-29T01:16:54;18.50;66.50
67557;DHT22;54387;53.526;49.300;2022-07-29T01:19:40;18.40;66.60
67557;DHT22;54387;53.526;49.300;2022-07-29T01:28:47;18.40;66.80
67557;DHT22;54387;53.526;49.300;2022-07-29T01:30:54;18.40;66.90
67557;DHT22;54387;53.526;49.300;2022-07-29T01:33:22;18.40;66.90
67557;DHT22;54387;53.526;49.300;2022-07-29T01:36:13;18.40;67.10
67557;DHT22;54387;53.526;49.300;2022-07-29T01:38:42;18.50;67.20
67557;DHT22;54387;53.526;49.300;2022-07-29T01:41:17;18.50;67.10
67557;DHT22;54387;53.526;49.300;2022-07-29T01:44:01;18.50;67.00
67557;DHT22;54387;53.526;49.300;2022-07-29T01:46:35;18.50;67.00
67557;DHT22;54387;53.526;49.300;2022-07-29T01:49:13;18.50;66.90
67557;DHT22;54387;53.526;49.300;2022-07-29T01:51:57;18.50;66.70
67557;DHT22;54387;53.526;49.300;2022-07-29T01:54:26;18.50;66.70
67557;DHT22;54387;53.526;49.300;2022-07-29T01:56:56;18.60;66.60
67557;DHT22;54387;53.526;49.300;2022-07-29T01:59:25;18.50;66.90
67557;DHT22;54387;53.526;49.300;2022-07-29T02:02:02;18.50;66.30
67557;DHT22;54387;53.526;49.300;2022-07-29T02:04:32;18.60;66.60
67557;DHT22;54387;53.526;49.300;2022-07-29T02:07:03;18.60;65.50
67557;DHT22;54387;53.526;49.300;2022-07-29T02:09:32;18.60;65.30
67557;DHT22;54387;53.526;49.300;2022-07-29T02:12:00;18.60;65.30
67557;DHT22;54387;53.526;49.300;2022-07-29T02:14:31;18.60;65.10
67557;DHT22;54387;53.526;49.300;2022-07-29T02:17:00;18.70;64.90
67557;DHT22;54387;53.526;49.300;2022-07-29T02:19:29;18.70;64.60
67557;DHT22;54387;53.526;49.300;2022-07-29T02:21:57;18.70;64.20
67557;DHT22;54387;53.526;49.300;2022-07-29T02:24:25;18.80;63.70
67557;DHT22;54387;53.526;49.300;2022-07-29T02:26:55;18.90;63.40
67557;DHT22;54387;53.526;49.300;2022-07-29T02:29:25;18.90;63.10
67557;DHT22;54387;53.526;49.300;2022-07-29T02:31:52;19.00;62.80
67557;DHT22;54387;53.526;49.300;2022-07-29T02:34:20;19.10;62.40
67557;DHT22;54387;53.526;49.300;2022-07-29T02:36:48;19.30;62.00
67557;DHT22;54387;53.526;49.300;2022-07-29T02:39:15;19.50;61.70
67557;DHT22;54387;53.526;49.300;2022-07-29T02:41:51;19.70;61.40
67557;DHT22;54387;53.526;49.300;2022-07-29T02:44:20;19.90;61.10
67557;DHT22;54387;53.526;49.300;2022-07-29T02:47:04;20.00;61.00
67557;DHT22;54387;53.526;49.300;2022-07-29T02:52:19;20.20;60.80
67557;DHT22;54387;53.526;49.300;2022-07-29T02:54:52;20.10;60.60
67557;DHT22;54387;53.526;49.300;2022-07-29T02:57:31;20.20;60.70
67557;DHT22;54387;53.526;49.300;2022-07-29T03:00:01;20.20;60.40
67557;DHT22;54387;53.526;49.300;2022-07-29T03:02:36;20.20;60.40
67557;DHT22;54387;53.526;49.300;2022-07-29T03:05:07;20.30;60.20
67557;DHT22;54387;53.526;49.300;2022-07-29T03:07:35;20.40;60.00
67557;DHT22;54387;53.526;49.300;2022-07-29T03:10:04;20.40;59.50
67557;DHT22;54387;53.526;49.300;2022-07-29T03:12:31;20.40;59.20
67557;DHT22;54387;53.526;49.300;2022-07-29T03:14:59;20.50;59.00
67557;DHT22;54387;53.526;49.300;2022-07-29T03:17:27;20.50;58.60
67557;DHT22;54387;53.526;49.300;2022-07-29T03:19:54;20.60;58.90
67557;DHT22;54387;53.526;49.300;2022-07-29T03:22:21;20.60;58.60
67557;DHT22;54387;53.526;49.300;2022-07-29T03:24:48;20.60;58.70
67557;DHT22;54387;53.526;49.300;2022-07-29T03:27:14;20.60;58.60
67557;DHT22;54387;53.526;49.300;2022-07-29T03:29:40;20.60;58.30
67557;DHT22;54387;53.526;49.300;2022-07-29T03:32:07;20.50;58.40
67557;DHT22;54387;53.526;49.300;2022-07-29T03:34:34;20.50;58.60
67557;DHT22;54387;53.526;49.300;2022-07-29T03:37:00;20.50;58.60
67557;DHT22;54387;53.526;49.300;2022-07-29T03:39:31;20.50;58.20
67557;DHT22;54387;53.526;49.300;2022-07-29T03:42:00;20.50;58.60
67557;DHT22;54387;53.526;49.300;2022-07-29T03:44:27;20.60;58.50
67557;DHT22;54387;53.526;49.300;2022-07-29T03:46:56;20.60;58.40
67557;DHT22;54387;53.526;49.300;2022-07-29T03:49:24;20.60;58.00
67557;DHT22;54387;53.526;49.300;2022-07-29T03:51:52;20.70;58.10
67557;DHT22;54387;53.526;49.300;2022-07-29T03:54:19;20.70;58.10
67557;DHT22;54387;53.526;49.300;2022-07-29T03:56:46;20.80;57.90
67557;DHT22;54387;53.526;49.300;2022-07-29T03:59:17;20.90;57.40
67557;DHT22;54387;53.526;49.300;2022-07-29T04:01:46;21.00;57.00
67557;DHT22;54387;53.526;49.300;2022-07-29T04:04:14;21.00;56.50
67557;DHT22;54387;53.526;49.300;2022-07-29T04:06:42;21.10;56.40
67557;DHT22;54387;53.526;49.300;2022-07-29T04:09:10;21.10;56.80
67557;DHT22;54387;53.526;49.300;2022-07-29T04:11:38;21.10;56.90
67557;DHT22;54387;53.526;49.300;2022-07-29T04:14:05;21.20;56.00
67557;DHT22;54387;53.526;49.300;2022-07-29T04:16:32;21.30;55.80
67557;DHT22;54387;53.526;49.300;2022-07-29T04:18:59;21.30;55.80
67557;DHT22;54387;53.526;49.300;2022-07-29T04:21:25;21.30;55.70
67557;DHT22;54387;53.526;49.300;2022-07-29T04:23:52;21.40;55.40
67557;DHT22;54387;53.526;49.300;2022-07-29T04:26:19;21.50;54.90
67557;DHT22;54387;53.526;49.300;2022-07-29T04:28:46;21.60;54.90
67557;DHT22;54387;53.526;49.300;2022-07-29T04:31:13;21.70;55.00
67557;DHT22;54387;53.526;49.300;2022-07-29T04:33:39;21.90;54.50
67557;DHT22;54387;53.526;49.300;2022-07-29T04:36:06;22.00;53.60
67557;DHT22;54387;53.526;49.300;2022-07-29T04:38:32;22.10;53.00
67557;DHT22;54387;53.526;49.300;2022-07-29T04:40:59;22.30;52.40
67557;DHT22;54387;53.526;49.300;2022-07-29T04:43:25;22.60;51.80
67557;DHT22;54387;53.526;49.300;2022-07-29T04:45:52;22.80;51.30
67557;DHT22;54387;53.526;49.300;2022-07-29T04:48:18;23.00;50.90
67557;DHT22;54387;53.526;49.300;2022-07-29T04:50:45;23.10;50.40
67557;DHT22;54387;53.526;49.300;2022-07-29T04:53:11;23.20;50.10
67557;DHT22;54387;53.526;49.300;2022-07-29T04:55:38;23.30;50.30
67557;DHT22;54387;53.526;49.300;2022-07-29T04:58:04;23.30;49.90
67557;DHT22;54387;53.526;49.300;2022-07-29T05:00:31;23.30;49.60
67557;DHT22;54387;53.526;49.300;2022-07-29T05:02:57;23.40;49.80
67557;DHT22;54387;53.526;49.300;2022-07-29T05:05:24;23.50;49.90
67557;DHT22;54387;53.526;49.300;2022-07-29T05:07:50;23.60;49.50
67557;DHT22;54387;53.526;49.300;2022-07-29T05:10:17;23.70;49.50
67557;DHT22;54387;53.526;49.300;2022-07-29T05:12:43;23.80;48.80
67557;DHT22;54387;53.526;49.300;2022-07-29T05:15:10;23.90;47.40
67557;DHT22;54387;53.526;49.300;2022-07-29T05:17:36;24.00;47.50
67557;DHT22;54387;53.526;49.300;2022-07-29T05:20:04;24.00;47.50
67557;DHT22;54387;53.526;49.300;2022-07-29T05:22:31;24.10;47.50
67557;DHT22;54387;53.526;49.300;2022-07-29T05:25:00;24.10;47.30
67557;DHT22;54387;53.526;49.300;2022-07-29T05:27:26;24.20;46.70
67557;DHT22;54387;53.526;49.300;2022-07-29T05:29:53;24.20;46.10
67557;DHT22;54387;53.526;49.300;2022-07-29T05:32:19;24.30;46.00
67557;DHT22;54387;53.526;49.300;2022-07-29T05:34:46;24.30;46.00
67557;DHT22;54387;53.526;49.300;2022-07-29T05:37:12;24.40;46.10
67557;DHT22;54387;53.526;49.300;2022-07-29T05:39:39;24.30;46.50
67557;DHT22;54387;53.526;49.300;2022-07-29T05:42:09;24.40;46.40
67557;DHT22;54387;53.526;49.300;2022-07-29T05:44:37;24.40;46.30
67557;DHT22;54387;53.526;49.300;2022-07-29T05:47:04;24.50;45.30
67557;DHT22;54387;53.526;49.300;2022-07-29T05:49:30;24.40;44.30
67557;DHT22;54387;53.526;49.300;2022-07-29T05:51:57;24.50;44.40
67557;DHT22;54387;53.526;49.300;2022-07-29T05:54:24;24.50;44.10
67557;DHT22;54387;53.526;49.300;2022-07-29T05:56:51;24.50;44.40
67557;DHT22;54387;53.526;49.300;2022-07-29T05:59:18;24.50;43.50
67557;DHT22;54387;53.526;49.300;2022-07-29T06:01:44;24.60;42.30
67557;DHT22;54387;53.526;49.300;2022-07-29T06:04:11;24.60;42.00
67557;DHT22;54387;53.526;49.300;2022-07-29T06:06:38;24.70;42.50
67557;DHT22;54387;53.526;49.300;2022-07-29T06:09:04;24.70;41.80
67557;DHT22;54387;53.526;49.300;2022-07-29T06:11:30;24.80;41.60
67557;DHT22;54387;53.526;49.300;2022-07-29T06:13:57;24.80;41.60
67557;DHT22;54387;53.526;49.300;2022-07-29T06:16:23;24.90;41.60
67557;DHT22;54387;53.526;49.300;2022-07-29T06:18:50;24.90;41.30
67557;DHT22;54387;53.526;49.300;2022-07-29T06:21:16;24.90;40.70
67557;DHT22;54387;53.526;49.300;2022-07-29T06:23:44;25.00;40.90
67557;DHT22;54387;53.526;49.300;2022-07-29T06:26:11;25.00;40.10
67557;DHT22;54387;53.526;49.300;2022-07-29T06:28:37;25.00;40.00
67557;DHT22;54387;53.526;49.300;2022-07-29T06:31:05;25.00;40.40
67557;DHT22;54387;53.526;49.300;2022-07-29T06:33:31;25.10;40.10
67557;DHT22;54387;53.526;49.300;2022-07-29T06:35:58;25.10;39.70
67557;DHT22;54387;53.526;49.300;2022-07-29T06:38:25;25.10;39.80
67557;DHT22;54387;53.526;49.300;2022-07-29T06:40:52;25.20;40.20
67557;DHT22;54387;53.526;49.300;2022-07-29T06:43:36;25.30;40.30
67557;DHT22;54387;53.526;49.300;2022-07-29T06:46:09;25.30;40.50
67557;DHT22;54387;53.526;49.300;2022-07-29T06:48:37;25.30;40.50
67557;DHT22;54387;53.526;49.300;2022-07-29T06:51:04;25.40;39.80
67557;DHT22;54387;53.526;49.300;2022-07-29T06:53:32;25.40;39.70
67557;DHT22;54387;53.526;49.300;2022-07-29T06:56:00;25.50;40.00
67557;DHT22;54387;53.526;49.300;2022-07-29T06:58:27;25.50;39.10
67557;DHT22;54387;53.526;49.300;2022-07-29T07:00:55;25.60;39.10
67557;DHT22;54387;53.526;49.300;2022-07-29T07:03:22;25.60;39.30
67557;DHT22;54387;53.526;49.300;2022-07-29T07:05:48;25.60;38.90
67557;DHT22;54387;53.526;49.300;2022-07-29T07:08:15;25.70;38.80
67557;DHT22;54387;53.526;49.300;2022-07-29T07:10:42;25.80;38.50
67557;DHT22;54387;53.526;49.300;2022-07-29T07:13:09;25.80;38.30
67557;DHT22;54387;53.526;49.300;2022-07-29T07:15:36;25.80;38.80
67557;DHT22;54387;53.526;49.300;2022-07-29T07:18:04;25.90;38.70
67557;DHT22;54387;53.526;49.300;2022-07-29T07:20:32;25.90;38.90
67557;DHT22;54387;53.526;49.300;2022-07-29T07:22:59;26.00;38.70
67557;DHT22;54387;53.526;49.300;2022-07-29T07:25:26;26.00;38.80
67557;DHT22;54387;53.526;49.300;2022-07-29T07:27:52;26.10;38.60
67557;DHT22;54387;53.526;49.300;2022-07-29T07:30:19;26.10;38.40
67557;DHT22;54387;53.526;49.300;2022-07-29T07:32:45;26.10;38.50
67557;DHT22;54387;53.526;49.300;2022-07-29T07:35:12;26.10;37.20
67557;DHT22;54387;53.526;49.300;2022-07-29T07:37:38;26.20;37.60
67557;DHT22;54387;53.526;49.300;2022-07-29T07:40:08;26.20;37.90
67557;DHT22;54387;53.526;49.300;2022-07-29T07:42:35;26.30;37.50
67557;DHT22;54387;53.526;49.300;2022-07-29T07:45:02;26.30;37.30
67557;DHT22;54387;53.526;49.300;2022-07-29T07:47:28;26.40;36.70
67557;DHT22;54387;53.526;49.300;2022-07-29T07:49:55;26.40;36.90
67557;DHT22;54387;53.526;49.300;2022-07-29T07:52:22;26.40;36.50
67557;DHT22;54387;53.526;49.300;2022-07-29T07:54:48;26.50;36.60
67557;DHT22;54387;53.526;49.300;2022-07-29T07:57:16;26.50;36.40
67557;DHT22;54387;53.526;49.300;2022-07-29T07:59:43;26.50;36.40
67557;DHT22;54387;53.526;49.300;2022-07-29T08:02:09;26.50;36.50
67557;DHT22;54387;53.526;49.300;2022-07-29T08:04:36;26.60;36.40
67557;DHT22;54387;53.526;49.300;2022-07-29T08:07:03;26.60;36.70
67557;DHT22;54387;53.526;49.300;2022-07-29T08:09:29;26.70;37.20
67557;DHT22;54387;53.526;49.300;2022-07-29T08:11:57;26.80;36.30
67557;DHT22;54387;53.526;49.300;2022-07-29T08:14:24;26.80;36.60
67557;DHT22;54387;53.526;49.300;2022-07-29T08:16:50;26.80;36.60
67557;DHT22;54387;53.526;49.300;2022-07-29T08:19:17;26.90;37.70
67557;DHT22;54387;53.526;49.300;2022-07-29T08:21:43;27.00;36.40
67557;DHT22;54387;53.526;49.300;2022-07-29T08:24:10;27.00;36.00
67557;DHT22;54387;53.526;49.300;2022-07-29T08:26:55;27.10;34.90
67557;DHT22;54387;53.526;49.300;2022-07-29T08:29:21;27.10;35.30
67557;DHT22;54387;53.526;49.300;2022-07-29T08:31:48;27.20;35.50
67557;DHT22;54387;53.526;49.300;2022-07-29T08:34:14;27.30;35.30
67557;DHT22;54387;53.526;49.300;2022-07-29T08:36:41;27.40;34.80
67557;DHT22;54387;53.526;49.300;2022-07-29T08:39:07;27.40;34.60
67557;DHT22;54387;53.526;49.300;2022-07-29T08:41:35;27.40;34.20
67557;DHT22;54387;53.526;49.300;2022-07-29T08:44:01;27.40;35.00
67557;DHT22;54387;53.526;49.300;2022-07-29T08:46:28;27.40;35.10
67557;DHT22;54387;53.526;49.300;2022-07-29T08:48:55;27.40;35.10
67557;DHT22;54387;53.526;49.300;2022-07-29T08:51:22;27.40;34.40
67557;DHT22;54387;53.526;49.300;2022-07-29T08:53:50;27.50;34.00
67557;DHT22;54387;53.526;49.300;2022-07-29T08:56:18;27.50;34.00
67557;DHT22;54387;53.526;49.300;2022-07-29T08:58:49;27.50;34.50
67557;DHT22;54387;53.526;49.300;2022-07-29T09:01:20;27.60;34.70
67557;DHT22;54387;53.526;49.300;2022-07-29T09:03:47;27.70;34.50
67557;DHT22;54387;53.526;49.300;2022-07-29T09:06:17;27.70;34.60
67557;DHT22;54387;53.526;49.300;2022-07-29T09:08:47;27.80;34.80
67557;DHT22;54387;53.526;49.300;2022-07-29T09:11:15;27.80;33.80
67557;DHT22;54387;53.526;49.300;2022-07-29T09:13:41;27.80;34.20
67557;DHT22;54387;53.526;49.300;2022-07-29T09:16:07;27.90;34.40
67557;DHT22;54387;53.526;49.300;2022-07-29T09:18:36;27.90;33.90
67557;DHT22;54387;53.526;49.300;2022-07-29T09:21:05;28.00;33.50
67557;DHT22;54387;53.526;49.300;2022-07-29T09:24:11;28.20;33.90
67557;DHT22;54387;53.526;49.300;2022-07-29T09:26:45;28.50;34.00
67557;DHT22;54387;53.526;49.300;2022-07-29T09:29:17;29.00;34.20
67557;DHT22;54387;53.526;49.300;2022-07-29T09:31:46;29.70;32.30
67557;DHT22;54387;53.526;49.300;2022-07-29T09:34:16;30.50;31.30
67557;DHT22;54387;53.526;49.300;2022-07-29T09:36:46;31.60;30.00
67557;DHT22;54387;53.526;49.300;2022-07-29T09:39:14;33.10;29.50
67557;DHT22;54387;53.526;49.300;2022-07-29T09:41:52;34.90;28.40
67557;DHT22;54387;53.526;49.300;2022-07-29T09:44:22;36.90;27.10
67557;DHT22;54387;53.526;49.300;2022-07-29T09:47:00;38.80;25.90
67557;DHT22;54387;53.526;49.300;2022-07-29T09:49:51;40.90;24.40
67557;DHT22;54387;53.526;49.300;2022-07-29T09:52:18;42.80;23.40
67557;DHT22;54387;53.526;49.300;2022-07-29T09:54:45;44.00;22.50
67557;DHT22;54387;53.526;49.300;2022-07-29T09:57:27;45.30;21.90
67557;DHT22;54387;53.526;49.300;2022-07-29T10:02:29;46.90;20.50
67557;DHT22;54387;53.526;49.300;2022-07-29T10:04:56;47.60;20.10
67557;DHT22;54387;53.526;49.300;2022-07-29T10:07:22;48.40;19.90
67557;DHT22;54387;53.526;49.300;2022-07-29T10:09:53;49.20;19.40
67557;DHT22;54387;53.526;49.300;2022-07-29T10:12:21;50.20;19.00
67557;DHT22;54387;53.526;49.300;2022-07-29T10:14:49;51.00;18.80
67557;DHT22;54387;53.526;49.300;2022-07-29T10:17:17;51.90;18.60
67557;DHT22;54387;53.526;49.300;2022-07-29T10:19:44;52.70;18.10
67557;DHT22;54387;53.526;49.300;2022-07-29T10:22:11;53.20;17.80
67557;DHT22;54387;53.526;49.300;2022-07-29T10:24:39;53.50;17.90
67557;DHT22;54387;53.526;49.300;2022-07-29T10:27:07;53.90;18.00
67557;DHT22;54387;53.526;49.300;2022-07-29T10:29:34;54.20;17.70
67557;DHT22;54387;53.526;49.300;2022-07-29T10:32:28;54.60;17.30
67557;DHT22;54387;53.526;49.300;2022-07-29T10:35:19;54.90;17.40
67557;DHT22;54387;53.526;49.300;2022-07-29T10:44:01;55.90;16.70
67557;DHT22;54387;53.526;49.300;2022-07-29T10:46:28;56.00;16.70
67557;DHT22;54387;53.526;49.300;2022-07-29T10:49:13;55.80;16.50
67557;DHT22;54387;53.526;49.300;2022-07-29T10:57:16;55.00;16.30
67557;DHT22;54387;53.526;49.300;2022-07-29T11:02:45;53.80;16.90
67557;DHT22;54387;53.526;49.300;2022-07-29T11:05:16;53.20;16.50
67557;DHT22;54387;53.526;49.300;2022-07-29T11:10:39;52.70;17.50
67557;DHT22;54387;53.526;49.300;2022-07-29T11:13:06;52.80;16.70
67557;DHT22;54387;53.526;49.300;2022-07-29T11:15:54;53.00;16.90
67557;DHT22;54387;53.526;49.300;2022-07-29T11:18:21;52.70;17.00
67557;DHT22;54387;53.526;49.300;2022-07-29T11:20:49;52.50;17.20
67557;DHT22;54387;53.526;49.300;2022-07-29T11:23:20;52.40;17.20
67557;DHT22;54387;53.526;49.300;2022-07-29T11:34:27;52.40;17.20
67557;DHT22;54387;53.526;49.300;2022-07-29T11:39:45;52.30;17.20
67557;DHT22;54387;53.526;49.300;2022-07-29T11:45:16;51.10;17.00
67557;DHT22;54387;53.526;49.300;2022-07-29T11:47:51;50.50;17.20
67557;DHT22;54387;53.526;49.300;2022-07-29T11:50:34;49.90;17.20
67557;DHT22;54387;53.526;49.300;2022-07-29T11:53:02;49.90;17.40
67557;DHT22;54387;53.526;49.300;2022-07-29T11:55:29;49.90;17.30
67557;DHT22;54387;53.526;49.300;2022-07-29T11:58:00;49.50;17.40
67557;DHT22;54387;53.526;49.300;2022-07-29T12:02:56;48.50;17.50
67557;DHT22;54387;53.526;49.300;2022-07-29T12:05:31;48.50;17.40
67557;DHT22;54387;53.526;49.300;2022-07-29T12:08:08;48.60;17.60
67557;DHT22;54387;53.526;49.300;2022-07-29T12:10:35;48.90;17.70
67557;DHT22;54387;53.526;49.300;2022-07-29T12:13:02;49.20;17.20
67557;DHT22;54387;53.526;49.300;2022-07-29T12:15:29;49.20;17.40
67557;DHT22;54387;53.526;49.300;2022-07-29T12:17:56;49.10;17.60
67557;DHT22;54387;53.526;49.300;2022-07-29T12:20:27;49.00;17.40
67557;DHT22;54387;53.526;49.300;2022-07-29T12:22:55;48.70;17.70
67557;DHT22;54387;53.526;49.300;2022-07-29T12:25:24;48.10;17.80
67557;DHT22;54387;53.526;49.300;2022-07-29T12:28:03;47.20;18.20
67557;DHT22;54387;53.526;49.300;2022-07-29T12:30:42;46.30;18.40
67557;DHT22;54387;53.526;49.300;2022-07-29T12:33:18;45.70;18.70
67557;DHT22;54387;53.526;49.300;2022-07-29T12:35:57;45.70;19.00
67557;DHT22;54387;53.526;49.300;2022-07-29T12:38:24;46.00;18.80
67557;DHT22;54387;53.526;49.300;2022-07-29T12:40:52;46.00;18.40
67557;DHT22;54387;53.526;49.300;2022-07-29T12:43:21;46.10;18.60
67557;DHT22;54387;53.526;49.300;2022-07-29T12:45:51;46.40;18.70
67557;DHT22;54387;53.526;49.300;2022-07-29T12:48:32;46.90;18.50
67557;DHT22;54387;53.526;49.300;2022-07-29T12:51:00;47.50;18.30
67557;DHT22;54387;53.526;49.300;2022-07-29T12:53:28;48.00;18.10
67557;DHT22;54387;53.526;49.300;2022-07-29T12:55:56;48.10;17.80
67557;DHT22;54387;53.526;49.300;2022-07-29T12:58:30;48.20;17.90
67557;DHT22;54387;53.526;49.300;2022-07-29T13:01:13;48.30;17.80
67557;DHT22;54387;53.526;49.300;2022-07-29T13:03:55;48.20;17.60
67557;DHT22;54387;53.526;49.300;2022-07-29T13:06:37;48.40;17.70
67557;DHT22;54387;53.526;49.300;2022-07-29T13:09:10;48.70;17.70
67557;DHT22;54387;53.526;49.300;2022-07-29T13:11:51;49.00;17.40
67557;DHT22;54387;53.526;49.300;2022-07-29T13:14:39;49.00;17.20
67557;DHT22;54387;53.526;49.300;2022-07-29T13:17:11;48.60;17.20
67557;DHT22;54387;53.526;49.300;2022-07-29T13:19:40;48.10;17.30
67557;DHT22;54387;53.526;49.300;2022-07-29T13:22:12;47.80;17.50
67557;DHT22;54387;53.526;49.300;2022-07-29T13:27:23;47.40;17.60
67557;DHT22;54387;53.526;49.300;2022-07-29T13:29:50;47.10;18.00
67557;DHT22;54387;53.526;49.300;2022-07-29T13:32:21;46.30;18.00
67557;DHT22;54387;53.526;49.300;2022-07-29T13:34:48;45.00;18.30
67557;DHT22;54387;53.526;49.300;2022-07-29T13:37:15;43.80;18.30
67557;DHT22;54387;53.526;49.300;2022-07-29T13:39:43;42.30;18.70
67557;DHT22;54387;53.526;49.300;2022-07-29T13:42:09;40.90;19.40
67557;DHT22;54387;53.526;49.300;2022-07-29T13:44:39;39.70;20.00
67557;DHT22;54387;53.526;49.300;2022-07-29T13:47:07;38.30;20.50
67557;DHT22;54387;53.526;49.300;2022-07-29T13:49:34;37.00;21.30
67557;DHT22;54387;53.526;49.300;2022-07-29T13:52:01;36.00;22.00
67557;DHT22;54387;53.526;49.300;2022-07-29T13:54:27;35.10;22.50
67557;DHT22;54387;53.526;49.300;2022-07-29T13:56:54;34.40;23.20
67557;DHT22;54387;53.526;49.300;2022-07-29T13:59:21;33.80;23.80
67557;DHT22;54387;53.526;49.300;2022-07-29T14:01:47;33.30;24.80
67557;DHT22;54387;53.526;49.300;2022-07-29T14:04:14;32.80;25.40
67557;DHT22;54387;53.526;49.300;2022-07-29T14:06:41;32.20;25.90
67557;DHT22;54387;53.526;49.300;2022-07-29T14:09:07;31.80;26.50
67557;DHT22;54387;53.526;49.300;2022-07-29T14:11:36;31.40;26.90
67557;DHT22;54387;53.526;49.300;2022-07-29T14:14:04;31.10;27.00
67557;DHT22;54387;53.526;49.300;2022-07-29T14:16:31;30.90;27.10
67557;DHT22;54387;53.526;49.300;2022-07-29T14:18:57;30.80;27.30
67557;DHT22;54387;53.526;49.300;2022-07-29T14:21:24;30.50;27.50
67557;DHT22;54387;53.526;49.300;2022-07-29T14:23:50;30.40;27.30
67557;DHT22;54387;53.526;49.300;2022-07-29T14:26:18;30.50;27.50
67557;DHT22;54387;53.526;49.300;2022-07-29T14:28:44;30.80;27.40
67557;DHT22;54387;53.526;49.300;2022-07-29T14:31:11;30.90;27.50
67557;DHT22;54387;53.526;49.300;2022-07-29T14:33:37;30.60;27.80
67557;DHT22;54387;53.526;49.300;2022-07-29T14:36:04;30.50;28.30
67557;DHT22;54387;53.526;49.300;2022-07-29T14:38:30;30.60;28.70
67557;DHT22;54387;53.526;49.300;2022-07-29T14:40:57;30.60;28.90
67557;DHT22;54387;53.526;49.300;2022-07-29T14:43:23;30.70;29.10
67557;DHT22;54387;53.526;49.300;2022-07-29T14:45:49;30.90;29.10
67557;DHT22;54387;53.526;49.300;2022-07-29T14:48:16;31.20;29.00
67557;DHT22;54387;53.526;49.300;2022-07-29T14:50:43;31.40;29.10
67557;DHT22;54387;53.526;49.300;2022-07-29T14:53:09;31.40;29.20
67557;DHT22;54387;53.526;49.300;2022-07-29T14:55:38;31.30;29.20
67557;DHT22;54387;53.526;49.300;2022-07-29T14:58:05;31.10;29.40
67557;DHT22;54387;53.526;49.300;2022-07-29T15:00:31;30.90;29.70
67557;DHT22;54387;53.526;49.300;2022-07-29T15:03:00;30.70;30.00
67557;DHT22;54387;53.526;49.300;2022-07-29T15:05:26;30.50;30.30
67557;DHT22;54387;53.526;49.300;2022-07-29T15:07:53;30.20;30.80
67557;DHT22;54387;53.526;49.300;2022-07-29T15:10:20;29.90;31.20
67557;DHT22;54387;53.526;49.300;2022-07-29T15:12:46;29.60;32.00
67557;DHT22;54387;53.526;49.300;2022-07-29T15:15:13;29.40;32.40
67557;DHT22;54387;53.526;49.300;2022-07-29T15:17:39;29.10;32.90
67557;DHT22;54387;53.526;49.300;2022-07-29T15:20:06;28.90;33.00
67557;DHT22;54387;53.526;49.300;2022-07-29T15:22:33;28.70;33.40
67557;DHT22;54387;53.526;49.300;2022-07-29T15:24:59;28.60;33.70
67557;DHT22;54387;53.526;49.300;2022-07-29T15:27:26;28.30;33.60
67557;DHT22;54387;53.526;49.300;2022-07-29T15:29:52;28.20;34.30
67557;DHT22;54387;53.526;49.300;2022-07-29T15:32:19;28.00;34.50
67557;DHT22;54387;53.526;49.300;2022-07-29T15:34:50;27.70;34.60
67557;DHT22;54387;53.526;49.300;2022-07-29T15:37:17;27.60;35.20
67557;DHT22;54387;53.526;49.300;2022-07-29T15:39:43;27.40;35.60
67557;DHT22;54387;53.526;49.300;2022-07-29T15:42:10;27.20;35.80
67557;DHT22;54387;53.526;49.300;2022-07-29T15:44:36;27.10;36.30
67557;DHT22;54387;53.526;49.300;2022-07-29T15:47:03;26.90;36.20
67557;DHT22;54387;53.526;49.300;2022-07-29T15:49:34;26.80;36.30
67557;DHT22;54387;53.526;49.300;2022-07-29T15:52:05;26.60;37.00
67557;DHT22;54387;53.526;49.300;2022-07-29T15:54:36;26.50;37.00
67557;DHT22;54387;53.526;49.300;2022-07-29T15:57:04;26.40;37.30
67557;DHT22;54387;53.526;49.300;2022-07-29T15:59:31;26.20;37.30
67557;DHT22;54387;53.526;49.300;2022-07-29T16:01:58;26.10;37.30
67557;DHT22;54387;53.526;49.300;2022-07-29T16:04:26;26.00;37.30
67557;DHT22;54387;53.526;49.300;2022-07-29T16:06:53;25.80;37.40
67557;DHT22;54387;53.526;49.300;2022-07-29T16:09:20;25.60;37.60
67557;DHT22;54387;53.526;49.300;2022-07-29T16:11:46;25.50;38.00
67557;DHT22;54387;53.526;49.300;2022-07-29T16:14:16;25.30;38.10